Time;durP1;ratioP1;P1;durP2;ratioP2;P2;SDS_P1;SDS_P2;PMS_P1;PMS_P2;Temp;Humidity;BMP_temperature;BMP_pressure;BME280_temperature;BME280_humidity;BME280_pressure;Samples;Min_cycle;Max_cycle;Signal;HPM_P1;HPM_P2
2022/11/17 00:04:28;;;;;;;3.53;2.37;;;2.40;99.90;;;;;;10388612;28;20618;-87
2022/11/17 00:09:49;;;;;;;5.53;2.60;;;2.30;1.00;;;;;;10418902;28;20235;-82
2022/11/17 00:15:10;;;;;;;5.23;3.10;;;2.30;1.00;;;;;;10387874;28;20196;-86
2022/11/17 00:26:26;;;;;;;4.17;2.53;;;2.40;1.00;;;;;;10401495;28;20426;-84
2022/11/17 00:37:29;;;;;;;2.80;2.10;;;2.30;99.90;;;;;;10401628;28;20438;-86
2022/11/17 00:42:51;;;;;;;3.73;2.50;;;2.40;1.00;;;;;;10386395;28;20196;-86
2022/11/17 00:48:12;;;;;;;2.33;2.13;;;2.40;99.90;;;;;;10387022;28;20221;-86
2022/11/17 00:53:33;;;;;;;2.53;2.20;;;2.40;1.00;;;;;;10386747;28;20200;-87
2022/11/17 00:58:55;;;;;;;3.37;2.43;;;2.40;99.90;;;;;;10391514;28;20499;-84
2022/11/17 01:04:16;;;;;;;3.77;2.30;;;2.40;1.00;;;;;;10408112;28;20180;-88
2022/11/17 01:09:38;;;;;;;3.50;2.70;;;2.30;65.70;;;;;;10402890;28;20307;-88
2022/11/17 01:14:59;;;;;;;3.23;2.57;;;2.20;1.00;;;;;;10385677;28;20204;-87
2022/11/17 01:20:21;;;;;;;3.77;2.00;;;2.20;99.90;;;;;;10385284;28;20219;-81
2022/11/17 01:25:42;;;;;;;4.30;2.77;;;2.20;99.90;;;;;;10384705;28;20195;-90
2022/11/17 01:31:16;;;;;;;2.50;2.20;;;2.20;99.90;;;;;;10371870;28;20279;-88
2022/11/17 01:42:25;;;;;;;3.60;2.80;;;2.20;1.00;;;;;;10398183;28;20193;-86
2022/11/17 01:47:55;;;;;;;4.23;2.93;;;2.20;1.00;;;;;;10370995;28;20213;-81
2022/11/17 01:53:18;;;;;;;4.07;2.90;;;2.20;1.00;;;;;;10398116;28;20198;-85
2022/11/17 01:58:44;;;;;;;3.33;2.83;;;2.10;1.00;;;;;;10397819;28;20251;-84
2022/11/17 02:04:05;;;;;;;3.90;3.07;;;;;;;;;;10370190;28;20205;-85
2022/11/17 02:09:27;;;;;;;2.90;2.60;;;2.10;1.00;;;;;;10395380;28;20236;-86
2022/11/17 02:14:49;;;;;;;2.63;2.40;;;2.10;1.00;;;;;;10383503;28;20447;-88
2022/11/17 02:20:12;;;;;;;3.33;2.67;;;2.20;1.00;;;;;;10369026;28;20199;-87
2022/11/17 02:25:37;;;;;;;3.77;3.30;;;2.20;1.00;;;;;;10397344;28;20216;-82
2022/11/17 02:31:19;;;;;;;4.33;3.37;;;2.20;1.00;;;;;;10383069;28;20250;-88
2022/11/17 02:37:08;;;;;;;6.40;3.77;;;2.10;99.90;;;;;;10368684;28;20228;-91
2022/11/17 02:48:28;;;;;;;7.70;3.93;;;2.10;1.00;;;;;;10396122;28;20227;-88
2022/11/17 02:53:55;;;;;;;8.70;4.93;;;2.10;1.00;;;;;;10382350;28;20187;-88
2022/11/17 02:59:20;;;;;;;5.97;3.83;;;2.10;1.00;;;;;;10368331;28;20204;-86
2022/11/17 03:04:46;;;;;;;7.67;4.43;;;2.10;99.90;;;;;;10355361;28;20479;-87
2022/11/17 03:10:07;;;;;;;11.90;6.40;;;2.10;1.00;;;;;;10371463;28;20271;-81
2022/11/17 03:15:55;;;;;;;9.97;5.07;;;2.20;1.00;;;;;;10382011;28;20189;-81
2022/11/17 03:21:22;;;;;;;6.07;3.90;;;2.20;1.00;;;;;;10394937;28;20259;-81
2022/11/17 03:27:04;;;;;;;7.57;4.90;;;2.10;99.90;;;;;;10387172;28;20189;-85
2022/11/17 03:32:30;;;;;;;6.10;4.40;;;2.10;99.90;;;;;;10389233;28;20279;-89
2022/11/17 03:37:57;;;;;;;8.20;4.47;;;2.10;99.90;;;;;;10355099;28;20220;-80
2022/11/17 03:43:20;;;;;;;7.50;3.80;;;2.10;2.60;;;;;;10389624;28;20565;-87
2022/11/17 03:49:09;;;;;;;4.97;3.83;;;2.00;1.00;;;;;;10389003;28;20236;-82
2022/11/17 03:54:31;;;;;;;5.20;3.73;;;2.10;99.90;;;;;;10403185;28;20386;-86
2022/11/17 04:00:05;;;;;;;4.00;3.47;;;2.10;4.70;;;;;;10388568;28;20197;-82
2022/11/17 04:05:32;;;;;;;5.70;4.03;;;2.10;99.90;;;;;;10359461;28;20252;-86
2022/11/17 04:16:35;;;;;;;4.70;3.53;;;2.00;1.00;;;;;;10347721;28;20248;-87
2022/11/17 04:21:56;;;;;;;5.87;4.07;;;1.90;1.00;;;;;;10361405;28;20200;-88
2022/11/17 04:32:57;;;;;;;5.50;3.80;;;2.00;99.90;;;;;;10377288;28;20205;-82
2022/11/17 04:38:19;;;;;;;4.17;3.43;;;2.00;99.90;;;;;;10387429;28;20276;-85
2022/11/17 04:43:40;;;;;;;5.23;3.43;;;2.00;1.00;;;;;;10373031;28;20247;-87
2022/11/17 04:49:03;;;;;;;4.67;3.47;;;2.00;1.00;;;;;;10386366;28;20300;-84
2022/11/17 04:54:24;;;;;;;3.73;3.30;;;;;;;;;;10372796;28;20386;-86
2022/11/17 04:59:46;;;;;;;10.47;5.03;;;;;;;;;;10387891;28;20239;-85
2022/11/17 05:05:07;;;;;;;5.37;4.20;;;1.70;99.90;;;;;;10372503;28;20556;-85
2022/11/17 05:21:49;;;;;;;4.50;3.47;;;1.70;1.00;;;;;;10426614;28;20221;-87
2022/11/17 05:27:10;;;;;;;7.77;4.87;;;1.60;99.90;;;;;;10426577;28;20277;-82
2022/11/17 05:32:31;;;;;;;11.97;8.17;;;1.60;1.00;;;;;;10409757;28;20221;-85
2022/11/17 05:37:53;;;;;;;11.83;6.90;;;1.60;99.90;;;;;;10375290;28;20495;-86
2022/11/17 05:43:14;;;;;;;7.73;4.83;;;1.60;1.00;;;;;;10393946;28;20247;-80
2022/11/17 05:48:36;;;;;;;5.93;4.07;;;1.60;99.90;;;;;;10405784;28;20302;-80
2022/11/17 05:53:57;;;;;;;11.30;5.83;;;1.50;1.00;;;;;;10377177;28;20569;-86
2022/11/17 05:59:27;;;;;;;5.60;4.17;;;1.60;99.90;;;;;;10384106;28;20231;-83
2022/11/17 06:04:49;;;;;;;6.07;4.77;;;1.50;7.50;;;;;;10343815;28;20191;-87
2022/11/17 06:10:10;;;;;;;6.53;3.97;;;1.40;1.00;;;;;;10407253;28;20223;-85
2022/11/17 06:15:33;;;;;;;9.47;5.60;;;1.40;99.90;;;;;;10424623;28;20249;-86
2022/11/17 06:20:54;;;;;;;10.70;7.23;;;1.40;1.00;;;;;;10410425;28;20227;-88
2022/11/17 06:26:15;;;;;;;18.60;9.17;;;1.40;1.00;;;;;;10395395;28;20192;-83
2022/11/17 06:31:39;;;;;;;11.73;6.87;;;1.50;99.90;;;;;;10382546;28;20238;-87
2022/11/17 06:37:00;;;;;;;15.43;8.97;;;1.50;99.90;;;;;;10397260;28;20519;-88
2022/11/17 06:43:02;;;;;;;8.57;5.90;;;1.60;1.00;;;;;;10328253;28;20207;-83
2022/11/17 06:48:03;;;;;;;7.43;5.63;;;1.50;1.00;;;;;;10355282;28;20193;-83
2022/11/17 06:53:27;;;;;;;12.03;6.33;;;1.60;1.00;;;;;;10361823;28;20208;-86
2022/11/17 06:58:48;;;;;;;7.37;5.20;;;1.50;99.90;;;;;;10381520;28;20196;-88
2022/11/17 07:04:09;;;;;;;10.63;6.83;;;1.40;1.00;;;;;;10357428;28;20197;-87
2022/11/17 07:09:30;;;;;;;15.53;7.17;;;1.50;1.00;;;;;;10381197;28;20318;-82
2022/11/17 07:14:51;;;;;;;9.30;5.10;;;1.60;1.00;;;;;;10409045;28;20194;-84
2022/11/17 07:20:13;;;;;;;12.47;7.83;;;1.50;1.00;;;;;;10437726;28;20196;-87
2022/11/17 07:25:34;;;;;;;25.07;13.57;;;1.60;1.00;;;;;;10385055;28;20216;-86
2022/11/17 07:31:01;;;;;;;17.43;9.83;;;1.60;1.00;;;;;;10382163;28;20231;-83
2022/11/17 07:36:22;;;;;;;23.23;10.30;;;1.60;1.00;;;;;;10386165;28;20230;-81
2022/11/17 07:41:55;;;;;;;25.17;13.43;;;1.50;99.90;;;;;;10378212;28;20208;-91
2022/11/17 07:47:17;;;;;;;26.50;13.17;;;1.60;99.90;;;;;;10376312;28;20454;-84
2022/11/17 07:52:38;;;;;;;29.47;17.73;;;1.70;1.00;;;;;;10386797;28;20224;-90
2022/11/17 07:58:01;;;;;;;14.93;9.87;;;1.60;1.00;;;;;;10384206;28;20515;-87
2022/11/17 08:03:23;;;;;;;11.97;8.80;;;1.70;1.00;;;;;;10354806;28;20202;-87
2022/11/17 08:08:47;;;;;;;12.57;7.80;;;1.70;1.00;;;;;;10368331;28;20443;-88
2022/11/17 08:14:08;;;;;;;11.80;6.47;;;1.70;99.90;;;;;;10416129;28;20212;-87
2022/11/17 08:19:29;;;;;;;8.53;6.57;;;1.70;1.00;;;;;;10416189;28;20200;-85
2022/11/17 08:24:51;;;;;;;10.03;6.07;;;1.60;39.00;;;;;;10392303;28;20191;-88
2022/11/17 08:30:12;;;;;;;20.77;11.33;;;1.50;96.20;;;;;;10388584;28;20250;-86
2022/11/17 08:35:34;;;;;;;8.33;6.43;;;1.40;99.90;;;;;;10387813;28;20235;-81
2022/11/17 08:41:08;;;;;;;13.37;7.03;;;1.40;99.90;;;;;;10386354;28;20232;-83
2022/11/17 08:46:29;;;;;;;13.73;8.10;;;1.40;1.00;;;;;;10358287;28;20211;-80
2022/11/17 08:51:51;;;;;;;12.87;7.73;;;1.40;1.00;;;;;;10366528;28;20242;-82
2022/11/17 08:57:12;;;;;;;7.93;5.97;;;1.30;99.90;;;;;;10372578;28;20189;-81
2022/11/17 09:02:34;;;;;;;10.87;7.67;;;1.30;99.90;;;;;;10362761;28;20205;-83
2022/11/17 09:07:55;;;;;;;10.77;7.30;;;1.30;1.00;;;;;;10372884;28;20237;-86
2022/11/17 09:13:19;;;;;;;14.60;10.00;;;1.30;1.00;;;;;;10396026;28;20212;-79
2022/11/17 09:18:40;;;;;;;16.97;10.63;;;1.40;99.90;;;;;;10335870;28;20295;-81
2022/11/17 09:24:02;;;;;;;14.30;9.20;;;1.50;99.90;;;;;;10358450;28;20209;-86
2022/11/17 09:29:23;;;;;;;12.77;8.67;;;1.50;99.90;;;;;;10397819;28;20236;-81
2022/11/17 09:34:44;;;;;;;16.90;10.10;;;1.60;1.00;;;;;;10384400;28;20231;-83
2022/11/17 09:40:09;;;;;;;17.40;10.43;;;1.50;1.00;;;;;;10378136;28;20243;-86
2022/11/17 09:45:37;;;;;;;12.30;7.57;;;1.60;99.90;;;;;;10374815;28;20204;-84
2022/11/17 09:51:00;;;;;;;17.53;10.20;;;1.50;99.90;;;;;;10377800;28;20236;-81
2022/11/17 09:56:25;;;;;;;14.43;8.93;;;1.50;1.00;;;;;;10382298;28;20212;-85
2022/11/17 10:01:46;;;;;;;13.80;8.13;;;1.60;99.90;;;;;;10370169;28;20205;-84
2022/11/17 10:07:08;;;;;;;16.40;8.87;;;1.50;99.90;;;;;;10373717;28;20567;-85
2022/11/17 10:12:37;;;;;;;18.40;10.53;;;1.60;99.90;;;;;;10421610;28;20333;-83
2022/11/17 10:17:59;;;;;;;19.67;11.43;;;1.50;1.00;;;;;;10427037;28;20211;-81
2022/11/17 10:23:21;;;;;;;27.57;13.77;;;1.60;1.00;;;;;;10387835;28;20191;-82
2022/11/17 10:28:43;;;;;;;23.53;11.40;;;1.50;1.00;;;;;;10343438;28;20215;-83
2022/11/17 10:34:04;;;;;;;10.70;8.17;;;1.70;99.90;;;;;;10378401;28;20206;-82
2022/11/17 10:39:34;;;;;;;19.03;10.33;;;1.70;99.90;;;;;;10350097;28;20245;-83
2022/11/17 10:45:00;;;;;;;15.60;9.80;;;1.70;1.00;;;;;;10352340;28;20212;-81
2022/11/17 10:50:26;;;;;;;17.83;10.33;;;1.80;1.00;;;;;;10373719;28;20244;-81
2022/11/17 10:56:01;;;;;;;23.23;14.27;;;1.80;1.00;;;;;;10383034;28;20204;-81
2022/11/17 11:01:34;;;;;;;19.07;10.73;;;1.80;99.90;;;;;;10374611;28;20211;-83
2022/11/17 11:07:08;;;;;;;16.37;9.67;;;1.90;99.90;;;;;;10368197;28;20232;-84
2022/11/17 11:12:39;;;;;;;13.97;9.27;;;1.80;99.90;;;;;;10349270;28;20250;-79
2022/11/17 11:18:04;;;;;;;15.00;9.10;;;1.80;1.00;;;;;;10377699;28;20197;-81
2022/11/17 11:24:00;;;;;;;17.03;9.73;;;1.80;1.00;;;;;;10338310;28;20200;-79
2022/11/17 11:30:04;;;;;;;16.77;10.10;;;1.80;99.90;;;;;;10395847;28;20231;-81
2022/11/17 11:35:40;;;;;;;14.67;9.87;;;1.80;1.00;;;;;;10368835;28;20209;-83
2022/11/17 11:41:16;;;;;;;20.97;11.60;;;2.10;99.90;;;;;;10359166;28;20487;-85
2022/11/17 11:46:56;;;;;;;15.47;9.67;;;2.20;1.00;;;;;;10343240;28;20521;-81
2022/11/17 11:52:24;;;;;;;11.77;9.13;;;2.30;1.00;;;;;;10396251;28;20243;-86
2022/11/17 11:57:59;;;;;;;12.57;8.53;;;2.20;1.00;;;;;;10352028;28;20196;-86
2022/11/17 12:03:25;;;;;;;18.10;12.90;;;2.10;99.90;;;;;;10365895;28;20208;-79
2022/11/17 12:08:58;;;;;;;17.60;11.57;;;2.30;1.00;;;;;;10391070;28;20265;-82
2022/11/17 12:14:19;;;;;;;19.07;10.90;;;2.10;99.90;;;;;;10371306;28;20209;-83
2022/11/17 12:19:43;;;;;;;15.27;10.30;;;2.20;99.90;;;;;;10388753;28;20195;-82
2022/11/17 12:25:19;;;;;;;14.70;11.30;;;2.10;99.90;;;;;;10370033;28;20219;-84
2022/11/17 12:30:43;;;;;;;17.57;10.27;;;2.30;99.90;;;;;;10381608;28;20544;-85
2022/11/17 12:36:25;;;;;;;18.83;12.13;;;2.40;99.90;;;;;;10390735;28;20285;-84
2022/11/17 12:41:49;;;;;;;16.17;10.00;;;2.80;99.90;;;;;;10370927;28;20213;-82
2022/11/17 12:47:22;;;;;;;15.67;10.50;;;2.90;1.00;;;;;;10371334;28;20197;-87
2022/11/17 12:52:53;;;;;;;13.50;9.50;;;3.00;1.00;;;;;;10358136;28;20225;-83
2022/11/17 12:58:44;;;;;;;15.50;11.67;;;2.90;99.90;;;;;;10375442;28;20208;-87
2022/11/17 13:04:10;;;;;;;18.33;12.60;;;2.60;99.90;;;;;;10370913;28;20222;-87
2022/11/17 13:09:35;;;;;;;11.23;8.90;;;2.30;1.00;;;;;;10401683;28;20301;-86
2022/11/17 13:15:01;;;;;;;22.53;14.80;;;2.00;99.90;;;;;;10431124;28;20200;-79
2022/11/17 13:20:28;;;;;;;19.53;12.17;;;2.10;1.00;;;;;;10375917;28;20208;-82
2022/11/17 13:25:51;;;;;;;26.43;14.97;;;2.00;1.00;;;;;;10397328;28;20188;-83
2022/11/17 13:31:17;;;;;;;27.13;16.53;;;2.10;1.00;;;;;;10401664;28;20228;-88
2022/11/17 13:37:14;;;;;;;25.53;14.90;;;2.20;99.90;;;;;;10373317;28;20283;-88
2022/11/17 13:42:35;;;;;;;24.00;14.63;;;2.20;1.00;;;;;;10270583;28;20218;-82
2022/11/17 13:47:58;;;;;;;15.37;10.43;;;2.20;99.90;;;;;;10248159;28;20203;-81
2022/11/17 13:53:25;;;;;;;17.00;10.67;;;2.20;99.90;;;;;;10282023;28;20230;-84
2022/11/17 13:58:49;;;;;;;22.97;12.40;;;2.10;1.00;;;;;;10283694;28;20556;-83
2022/11/17 14:04:19;;;;;;;20.07;11.63;;;2.00;1.00;;;;;;10264943;28;20199;-83
2022/11/17 14:09:41;;;;;;;14.57;9.90;;;1.90;1.00;;;;;;10303446;28;20301;-81
2022/11/17 14:15:23;;;;;;;20.40;12.53;;;1.90;99.90;;;;;;10315143;28;20286;-87
2022/11/17 14:20:45;;;;;;;19.43;12.23;;;1.90;99.90;;;;;;10379078;28;20271;-85
2022/11/17 14:26:19;;;;;;;24.10;14.70;;;1.80;99.90;;;;;;10354119;28;20190;-87
2022/11/17 14:31:40;;;;;;;32.93;18.10;;;1.70;1.00;;;;;;10353417;28;20239;-92
2022/11/17 14:37:02;;;;;;;26.40;16.87;;;1.70;1.00;;;;;;10385954;28;20215;-83
2022/11/17 14:42:24;;;;;;;56.60;31.03;;;1.70;99.90;;;;;;10392720;28;20204;-88
2022/11/17 14:47:46;;;;;;;34.43;19.50;;;;;;;;;;10367810;28;20203;-85
2022/11/17 14:53:07;;;;;;;36.57;18.73;;;1.50;99.90;;;;;;10382570;28;20234;-86
2022/11/17 14:58:30;;;;;;;39.33;22.27;;;1.50;99.90;;;;;;10394699;28;20250;-90
2022/11/17 15:03:52;;;;;;;47.00;25.97;;;1.50;1.00;;;;;;10368008;28;20195;-82
2022/11/17 15:09:15;;;;;;;61.17;31.00;;;1.50;1.00;;;;;;10408622;28;20279;-82
2022/11/17 15:14:36;;;;;;;57.70;32.10;;;1.40;99.90;;;;;;10358894;28;20220;-84
2022/11/17 15:19:57;;;;;;;57.23;31.13;;;1.30;1.00;;;;;;10371761;28;20230;-84
2022/11/17 15:25:18;;;;;;;58.57;31.73;;;1.30;1.00;;;;;;10361243;28;20205;-86
2022/11/17 15:30:40;;;;;;;53.70;28.50;;;1.20;1.00;;;;;;10386036;28;20416;-87
2022/11/17 15:36:03;;;;;;;39.43;20.90;;;1.20;1.00;;;;;;10367067;28;20216;-83
2022/11/17 15:41:24;;;;;;;36.87;20.93;;;1.20;1.00;;;;;;10362037;28;20227;-88
2022/11/17 15:46:48;;;;;;;52.07;23.17;;;1.10;99.90;;;;;;10345684;28;20208;-88
2022/11/17 15:52:09;;;;;;;50.43;23.40;;;1.10;99.90;;;;;;10368565;28;20236;-82
2022/11/17 15:57:30;;;;;;;40.43;20.80;;;1.10;1.00;;;;;;10356680;28;20211;-84
2022/11/17 16:02:51;;;;;;;46.93;23.67;;;1.00;1.00;;;;;;10387854;28;20258;-85
2022/11/17 16:08:15;;;;;;;63.47;26.60;;;1.00;1.00;;;;;;10357226;28;20272;-86
2022/11/17 16:13:37;;;;;;;57.50;29.37;;;1.00;99.90;;;;;;10345359;28;20447;-87
2022/11/17 16:18:58;;;;;;;54.53;28.43;;;0.90;99.90;;;;;;10393681;28;20352;-81
2022/11/17 16:24:19;;;;;;;52.17;27.13;;;0.90;1.00;;;;;;10394025;28;20191;-80
2022/11/17 16:29:41;;;;;;;46.23;22.93;;;0.80;1.00;;;;;;10380487;28;20223;-80
2022/11/17 16:35:02;;;;;;;39.43;21.73;;;0.80;1.00;;;;;;10381503;28;20206;-80
2022/11/17 16:40:24;;;;;;;39.30;19.87;;;;;;;;;;10426577;28;20196;-86
2022/11/17 16:45:45;;;;;;;40.50;22.17;;;0.70;1.00;;;;;;10398991;28;20199;-79
2022/11/17 16:51:07;;;;;;;39.00;21.50;;;0.70;99.90;;;;;;10336813;28;20228;-79
2022/11/17 16:56:28;;;;;;;44.30;22.87;;;0.70;99.90;;;;;;10339528;28;20200;-82
2022/11/17 17:01:49;;;;;;;37.97;21.43;;;0.70;99.90;;;;;;10337091;28;20202;-82
2022/11/17 17:07:10;;;;;;;47.90;22.17;;;0.70;99.90;;;;;;10370536;28;20605;-80
2022/11/17 17:12:46;;;;;;;39.00;21.50;;;0.70;51.50;;;;;;10402365;28;20224;-81
2022/11/17 17:19:13;;;;;;;37.27;19.63;;;0.60;99.90;;;;;;10237772;29;20219;-88
2022/11/17 17:24:35;;;;;;;38.13;21.07;;;0.50;99.90;;;;;;10195345;29;20214;-81
2022/11/17 17:29:56;;;;;;;43.77;22.17;;;0.50;99.90;;;;;;10240795;29;20257;-88
2022/11/17 17:35:17;;;;;;;48.20;23.40;;;0.50;99.90;;;;;;10222943;29;20431;-79
2022/11/17 17:40:38;;;;;;;44.23;23.27;;;0.50;99.90;;;;;;10289274;28;20240;-78
2022/11/17 17:46:05;;;;;;;42.57;23.33;;;0.40;99.90;;;;;;10401599;28;20284;-81
2022/11/17 17:51:28;;;;;;;59.57;31.20;;;0.50;1.00;;;;;;10404104;28;20227;-80
2022/11/17 17:56:50;;;;;;;66.40;33.60;;;0.40;1.00;;;;;;10390773;28;20203;-85
2022/11/17 18:02:11;;;;;;;74.00;36.47;;;;;;;;;;10400888;28;20489;-79
2022/11/17 18:07:32;;;;;;;103.03;48.03;;;0.50;1.00;;;;;;10387464;28;20231;-80
2022/11/17 18:12:54;;;;;;;97.73;43.27;;;0.40;1.00;;;;;;10399042;28;20522;-88
2022/11/17 18:18:15;;;;;;;87.03;40.80;;;0.30;1.00;;;;;;10383834;28;20199;-79
2022/11/17 18:23:37;;;;;;;82.97;38.50;;;0.20;1.00;;;;;;10383695;28;20238;-83
2022/11/17 18:29:01;;;;;;;82.40;40.90;;;0.20;1.00;;;;;;10400516;28;20196;-83
2022/11/17 18:34:24;;;;;;;80.37;37.53;;;0.20;1.00;;;;;;10391689;28;20215;-79
2022/11/17 18:39:46;;;;;;;77.63;38.50;;;0.20;1.00;;;;;;10400399;28;20274;-84
2022/11/17 18:45:08;;;;;;;73.10;37.20;;;0.20;1.00;;;;;;10383016;28;20476;-80
2022/11/17 18:50:29;;;;;;;71.57;36.67;;;0.20;1.00;;;;;;10369572;28;20223;-83
2022/11/17 18:55:50;;;;;;;76.57;39.47;;;0.20;1.00;;;;;;10368036;28;20195;-82
2022/11/17 19:01:13;;;;;;;99.17;46.27;;;0.10;1.00;;;;;;10394184;28;20203;-86
2022/11/17 19:06:34;;;;;;;98.40;43.03;;;0.10;1.00;;;;;;10390406;28;20276;-88
2022/11/17 19:11:56;;;;;;;108.80;44.50;;;;;;;;;;10381914;28;20310;-88
2022/11/17 19:17:18;;;;;;;83.70;37.90;;;;;;;;;;10381073;28;20517;-88
2022/11/17 19:22:39;;;;;;;95.13;40.80;;;;;;;;;;10381665;28;20192;-88
2022/11/17 19:28:01;;;;;;;88.37;41.90;;;;;;;;;;10381046;28;20197;-83
2022/11/17 19:33:22;;;;;;;90.83;42.97;;;;;;;;;;10380700;28;20540;-80
2022/11/17 19:38:47;;;;;;;63.87;33.90;;;0.10;99.90;;;;;;10380820;28;20207;-85
2022/11/17 19:44:08;;;;;;;62.13;32.70;;;-0.10;1.00;;;;;;10380950;28;20257;-85
2022/11/17 19:49:30;;;;;;;71.40;34.13;;;-0.20;99.90;;;;;;10381574;28;20200;-87
2022/11/17 19:54:51;;;;;;;73.97;34.83;;;-0.30;1.00;;;;;;10381247;28;20199;-86
2022/11/17 20:00:14;;;;;;;71.30;34.00;;;-0.20;1.00;;;;;;10380955;28;20303;-84
2022/11/17 20:05:36;;;;;;;70.43;34.77;;;-0.20;1.00;;;;;;10384122;28;20245;-82
2022/11/17 20:11:13;;;;;;;76.10;39.10;;;-0.20;1.00;;;;;;10405188;28;20302;-89
2022/11/17 20:16:35;;;;;;;80.07;37.13;;;-0.20;1.00;;;;;;10375693;28;20200;-81
2022/11/17 20:21:57;;;;;;;70.40;34.17;;;-0.20;1.00;;;;;;10402791;28;20186;-79
2022/11/17 20:27:18;;;;;;;65.33;32.60;;;-0.20;1.00;;;;;;10400830;28;20210;-84
2022/11/17 20:32:39;;;;;;;59.80;32.60;;;-0.10;1.00;;;;;;10402550;28;20238;-89
2022/11/17 20:38:03;;;;;;;62.67;32.07;;;-0.10;1.00;;;;;;10372503;28;20281;-85
2022/11/17 20:43:27;;;;;;;83.07;39.73;;;0.00;1.00;;;;;;10387118;28;20203;-88
2022/11/17 20:48:48;;;;;;;84.40;39.13;;;0.00;1.00;;;;;;10375414;28;20195;-84
2022/11/17 20:54:09;;;;;;;76.67;37.63;;;-0.10;99.90;;;;;;10401213;28;20244;-82
2022/11/17 20:59:30;;;;;;;72.57;36.30;;;-0.10;1.00;;;;;;10412595;28;20209;-79
2022/11/17 21:04:52;;;;;;;66.33;32.10;;;-0.20;1.00;;;;;;10392280;28;20192;-79
2022/11/17 21:10:13;;;;;;;53.60;27.63;;;-0.30;99.90;;;;;;10372774;28;20249;-80
2022/11/17 21:15:35;;;;;;;45.90;24.77;;;-0.30;1.00;;;;;;10399537;28;20432;-82
2022/11/17 21:20:58;;;;;;;55.27;25.87;;;-0.30;1.00;;;;;;10398395;28;20195;-87
2022/11/17 21:26:21;;;;;;;71.83;33.23;;;-0.30;1.00;;;;;;10399479;28;20297;-81
2022/11/17 21:31:43;;;;;;;88.10;43.47;;;-0.30;1.00;;;;;;10373092;28;20227;-83
2022/11/17 21:37:04;;;;;;;92.07;45.53;;;-0.40;1.00;;;;;;10412921;28;20198;-79
2022/11/17 21:42:26;;;;;;;94.77;46.03;;;-0.40;1.00;;;;;;10388260;28;20203;-80
2022/11/17 21:47:47;;;;;;;83.50;42.47;;;-0.40;1.00;;;;;;10387849;28;20219;-81
2022/11/17 21:53:09;;;;;;;88.67;41.93;;;-0.50;1.00;;;;;;10399378;28;20218;-81
2022/11/17 21:58:31;;;;;;;83.90;41.87;;;-0.30;1.00;;;;;;10383767;28;20198;-79
2022/11/17 22:03:52;;;;;;;97.20;47.60;;;-0.20;8.90;;;;;;10383748;28;20203;-85
2022/11/17 22:09:13;;;;;;;90.47;46.93;;;-0.10;1.00;;;;;;10396556;28;20238;-80
2022/11/17 22:14:34;;;;;;;90.63;43.23;;;-0.10;1.00;;;;;;10384402;28;20301;-89
2022/11/17 22:19:55;;;;;;;72.83;37.70;;;0.00;1.00;;;;;;10390826;28;20262;-89
2022/11/17 22:25:16;;;;;;;65.50;32.47;;;0.10;1.00;;;;;;10401276;28;20202;-89
2022/11/17 22:30:57;;;;;;;65.00;31.00;;;0.10;1.00;;;;;;10385292;28;20227;-80
2022/11/17 22:36:19;;;;;;;46.70;25.07;;;0.20;1.00;;;;;;10382817;28;20389;-80
2022/11/17 22:41:40;;;;;;;37.47;21.20;;;0.30;1.00;;;;;;10382075;28;20409;-79
2022/11/17 22:47:01;;;;;;;41.77;20.83;;;0.30;14.70;;;;;;10382258;28;20197;-88
2022/11/17 22:52:22;;;;;;;48.03;24.03;;;0.40;99.90;;;;;;10381995;28;20282;-80
2022/11/17 22:57:43;;;;;;;40.80;20.03;;;0.30;99.90;;;;;;10368534;28;20228;-89
2022/11/17 23:03:05;;;;;;;33.40;18.27;;;0.20;99.90;;;;;;10381970;28;20269;-84
2022/11/17 23:08:26;;;;;;;33.07;16.63;;;0.20;99.90;;;;;;10380953;28;20310;-80
2022/11/17 23:13:48;;;;;;;30.50;16.73;;;0.20;99.90;;;;;;10385333;28;20247;-81
2022/11/17 23:19:12;;;;;;;27.53;16.07;;;0.30;1.00;;;;;;10381276;28;20486;-79
2022/11/17 23:24:33;;;;;;;32.83;17.70;;;0.20;1.00;;;;;;10367506;28;20204;-88
2022/11/17 23:29:54;;;;;;;36.27;18.30;;;0.30;1.00;;;;;;10381540;28;20224;-88
2022/11/17 23:35:15;;;;;;;28.23;15.37;;;0.30;1.00;;;;;;10395150;28;20242;-80
2022/11/17 23:40:36;;;;;;;33.00;20.43;;;0.30;1.00;;;;;;10381719;28;20205;-87
2022/11/17 23:46:06;;;;;;;71.83;47.60;;;0.30;1.00;;;;;;10397595;28;20265;-83
2022/11/17 23:51:28;;;;;;;63.43;39.57;;;0.40;1.00;;;;;;10413575;28;20222;-81
2022/11/17 23:56:51;;;;;;;19.30;12.90;;;0.40;1.00;;;;;;10387213;28;20394;-90
